Map

Track Data

SID SEASON NUMBER BASIN SUBBASIN NAME ISO_TIME NATURE LAT LON WMO_WIND WMO_PRES WMO_AGENCY TRACK_TYPE DIST2LAND LANDFALL IFLAG USA_AGENCY USA_ATCF_ID USA_LAT USA_LON USA_RECORD USA_STATUS USA_WIND USA_PRES USA_SSHS USA_R34_NE USA_R34_SE USA_R34_SW USA_R34_NW USA_R50_NE USA_R50_SE USA_R50_SW USA_R50_NW USA_R64_NE USA_R64_SE USA_R64_SW USA_R64_NW USA_POCI USA_ROCI USA_RMW USA_EYE TOKYO_LAT TOKYO_LON TOKYO_GRADE TOKYO_WIND TOKYO_PRES TOKYO_R50_DIR TOKYO_R50_LONG TOKYO_R50_SHORT TOKYO_R30_DIR TOKYO_R30_LONG TOKYO_R30_SHORT TOKYO_LAND CMA_LAT CMA_LON CMA_CAT CMA_WIND CMA_PRES HKO_LAT HKO_LON HKO_CAT HKO_WIND HKO_PRES NEWDELHI_LAT NEWDELHI_LON NEWDELHI_GRADE NEWDELHI_WIND NEWDELHI_PRES NEWDELHI_CI NEWDELHI_DP NEWDELHI_POCI REUNION_LAT REUNION_LON REUNION_TYPE REUNION_WIND REUNION_PRES REUNION_TNUM REUNION_CI REUNION_RMW REUNION_R34_NE REUNION_R34_SE REUNION_R34_SW REUNION_R34_NW REUNION_R50_NE REUNION_R50_SE REUNION_R50_SW REUNION_R50_NW REUNION_R64_NE REUNION_R64_SE REUNION_R64_SW REUNION_R64_NW BOM_LAT BOM_LON BOM_TYPE BOM_WIND BOM_PRES BOM_TNUM BOM_CI BOM_RMW BOM_R34_NE BOM_R34_SE BOM_R34_SW BOM_R34_NW BOM_R50_NE BOM_R50_SE BOM_R50_SW BOM_R50_NW BOM_R64_NE BOM_R64_SE BOM_R64_SW BOM_R64_NW BOM_ROCI BOM_POCI BOM_EYE BOM_POS_METHOD BOM_PRES_METHOD NADI_LAT NADI_LON NADI_CAT NADI_WIND NADI_PRES WELLINGTON_LAT WELLINGTON_LON WELLINGTON_WIND WELLINGTON_PRES DS824_LAT DS824_LON DS824_STAGE DS824_WIND DS824_PRES TD9636_LAT TD9636_LON TD9636_STAGE TD9636_WIND TD9636_PRES TD9635_LAT TD9635_LON TD9635_WIND TD9635_PRES TD9635_ROCI NEUMANN_LAT NEUMANN_LON NEUMANN_CLASS NEUMANN_WIND NEUMANN_PRES MLC_LAT MLC_LON MLC_CLASS MLC_WIND MLC_PRES USA_GUST BOM_GUST BOM_GUST_PER REUNION_GUST REUNION_GUST_PER USA_SEAHGT USA_SEARAD_NE USA_SEARAD_SE USA_SEARAD_SW USA_SEARAD_NW STORM_SPEED STORM_DIR
1858291N21287 1858 17 NA NA NOT_NAMED 1858-10-18 00:00:00 ET 20.5000 -72.7000 main 67 61 _____________O -1 20.5000 -72.7000 EX 35 2 338
1858291N21287 1858 17 NA NA NOT_NAMED 1858-10-18 03:00:00 ET 20.6100 -72.7375 main 61 45 _____________P -1 20.6100 -72.7375 EX 35 2 333
1858291N21287 1858 17 NA NA NOT_NAMED 1858-10-18 06:00:00 ET 20.7000 -72.8000 main 45 30 _____________O -1 20.7000 -72.8000 EX 35 2 314
1858291N21287 1858 17 NA NA NOT_NAMED 1858-10-18 09:00:00 ET 20.7575 -72.9000 main 30 24 _____________P -1 20.7575 -72.9000 EX 35 2 299
1858291N21287 1858 17 NA NA NOT_NAMED 1858-10-18 12:00:00 ET 20.8000 -73.0000 main 24 22 _____________O -1 20.8000 -73.0000 EX 35 2 302
1858291N21287 1858 17 NA NA NOT_NAMED 1858-10-18 15:00:00 ET 20.8500 -73.0575 main 22 11 _____________P -1 20.8500 -73.0575 EX 37 1 317
1858291N21287 1858 17 NA NA NOT_NAMED 1858-10-18 18:00:00 SS 20.9000 -73.1000 main 11 11 _____________O -1 20.9000 -73.1000 SS 40 1 318
1858291N21287 1858 17 NA NA NOT_NAMED 1858-10-18 21:00:00 SS 20.9425 -73.1500 main 11 0 _____________P -1 20.9425 -73.1500 SS 40 1 317
1858291N21287 1858 17 NA NA NOT_NAMED 1858-10-19 00:00:00 SS 21.0000 -73.2000 main 0 0 _____________O -1 21.0000 -73.2000 SS 40 2 330
1858291N21287 1858 17 NA NA NOT_NAMED 1858-10-19 03:00:00 SS 21.1000 -73.2425 main 0 0 _____________P -1 21.1000 -73.2425 SS 42 2 333
1858291N21287 1858 17 NA NA NOT_NAMED 1858-10-19 06:00:00 SS 21.2000 -73.3000 main 10 10 _____________O -1 21.2000 -73.3000 SS 45 2 317
1858291N21287 1858 17 NA NA NOT_NAMED 1858-10-19 09:00:00 SS 21.2575 -73.4000 main 22 22 _____________P -1 21.2575 -73.4000 SS 45 2 299
1858291N21287 1858 17 NA NA NOT_NAMED 1858-10-19 12:00:00 SS 21.3000 -73.5000 main 22 22 _____________O -1 21.3000 -73.5000 SS 45 2 305
1858291N21287 1858 17 NA NA NOT_NAMED 1858-10-19 15:00:00 SS 21.3500 -73.5500 main 22 22 _____________P -1 21.3500 -73.5500 SS 45 1 317
1858291N21287 1858 17 NA NA NOT_NAMED 1858-10-19 18:00:00 TS 21.4000 -73.6000 main 33 33 _____________O -1 21.4000 -73.6000 TS 45 2 302
1858291N21287 1858 17 NA NA NOT_NAMED 1858-10-19 21:00:00 TS 21.4425 -73.7075 main 33 33 _____________P -1 21.4425 -73.7075 TS 47 2 299
1858291N21287 1858 17 NA NA NOT_NAMED 1858-10-20 00:00:00 TS 21.5000 -73.8000 main 45 45 _____________O -1 21.5000 -73.8000 TS 50 2 328
1858291N21287 1858 17 NA NA NOT_NAMED 1858-10-20 03:00:00 TS 21.6000 -73.8075 main 56 56 _____________P -1 21.6000 -73.8075 TS 50 2 8
1858291N21287 1858 17 NA NA NOT_NAMED 1858-10-20 06:00:00 TS 21.7000 -73.8000 main 67 67 _____________O -1 21.7000 -73.8000 TS 50 2 345
1858291N21287 1858 17 NA NA NOT_NAMED 1858-10-20 09:00:00 TS 21.7575 -73.8425 main 78 78 _____________P -1 21.7575 -73.8425 TS 50 1 317
1858291N21287 1858 17 NA NA NOT_NAMED 1858-10-20 12:00:00 TS 21.8000 -73.9000 main 80 80 _____________O -1 21.8000 -73.9000 TS 50 1 312
1858291N21287 1858 17 NA NA NOT_NAMED 1858-10-20 15:00:00 TS 21.8500 -73.9575 main 94 94 _____________P -1 21.8500 -73.9575 TS 50 1 317
1858291N21287 1858 17 NA NA NOT_NAMED 1858-10-20 18:00:00 TS 21.9000 -74.0000 main 94 94 _____________O -1 21.9000 -74.0000 TS 50 1 319
1858291N21287 1858 17 NA NA NOT_NAMED 1858-10-20 21:00:00 TS 21.9350 -74.0300 main 94 80 _____________P -1 21.9350 -74.0300 TS 52 1 118
1858291N21287 1858 17 NA NA NOT_NAMED 1858-10-21 00:00:00 TS 21.8333 -73.8667 50 hurdat_atl main 80 78 O____________O hurdat_atl AL061858 21.5000 -73.6000 TS 50 0 22.0000 -74.0000 TS 55 3 103
1858291N21287 1858 17 NA NA NOT_NAMED 1858-10-21 03:00:00 TS 21.8612 -73.6738 main 89 84 P____________P AL061858 21.5800 -73.4600 TS 50 0 22.1425 -73.8875 TS 55 4 74
1858291N21287 1858 17 NA NA NOT_NAMED 1858-10-21 06:00:00 TS 21.9400 -73.4600 50 hurdat_atl main 84 80 O____________O hurdat_atl AL061858 21.7000 -73.3000 TS 50 0 22.3000 -73.7000 TS 55 5 65
1858291N21287 1858 17 NA NA NOT_NAMED 1858-10-21 09:00:00 TS 22.0567 -73.2217 main 100 100 P____________P AL061858 21.8850 -73.1075 TS 55 0 22.4001 -73.4500 TS 57 5 55
1858291N21287 1858 17 NA NA NOT_NAMED 1858-10-21 12:00:00 TS 22.2333 -73.0000 60 hurdat_atl main 111 111 O____________O hurdat_atl AL061858 22.1000 -72.9000 TS 60 0 22.5000 -73.2000 TS 60 5 47
1858291N21287 1858 17 NA NA NOT_NAMED 1858-10-21 15:00:00 TS 22.4066 -72.8141 main 135 135 P____________P AL061858 22.2850 -72.6999 TS 60 0 22.6499 -73.0425 TS 60 5 43
1858291N21287 1858 17 NA NA NOT_NAMED 1858-10-21 18:00:00 TS 22.6000 -72.6333 60 hurdat_atl main 161 161 O____________O hurdat_atl AL061858 22.5000 -72.5000 TS 60 0 22.8000 -72.9000 TS 60 5 40
1858291N21287 1858 17 NA NA NOT_NAMED 1858-10-21 21:00:00 TS 22.8158 -72.4482 main 189 189 P____________P AL061858 22.7849 -72.3074 TS 60 0 22.8774 -72.7297 TS 60 6 38
1858291N21287 1858 17 NA NA NOT_NAMED 1858-10-22 00:00:00 TS 23.0667 -72.2333 60 hurdat_atl main 227 227 O____________O hurdat_atl AL061858 23.1000 -72.1000 TS 60 0 23.0000 -72.5000 TS 60 7 39
1858291N21287 1858 17 NA NA NOT_NAMED 1858-10-22 03:00:00 TS 23.3617 -71.9601 main 266 266 P____________P AL061858 23.4075 -71.8575 TS 60 0 23.2701 -72.1652 TS 60 8 41
1858291N21287 1858 17 NA NA NOT_NAMED 1858-10-22 06:00:00 TS 23.6667 -71.6667 60 hurdat_atl main 309 309 O____________O hurdat_atl AL061858 23.7000 -71.6000 TS 60 0 23.6000 -71.8000 TS 60 8 43
1858291N21287 1858 17 NA NA NOT_NAMED 1858-10-22 09:00:00 TS 23.9058 -71.3996 main 343 343 P____________P AL061858 23.9200 -71.3496 TS 65 1 23.8774 -71.4996 TS 60 7 42
1858291N21287 1858 17 NA NA NOT_NAMED 1858-10-22 12:00:00 TS 24.2000 -71.1333 70 hurdat_atl main 387 387 O____________O hurdat_atl AL061858 24.2000 -71.1000 HU 70 1 24.2000 -71.2000 TS 60 9 33
1858291N21287 1858 17 NA NA NOT_NAMED 1858-10-22 15:00:00 TS 24.6633 -70.8575 main 446 446 P____________P AL061858 24.6699 -70.8575 HU 70 1 24.6500 -70.8577 TS 60 11 28
1858291N21287 1858 17 NA NA NOT_NAMED 1858-10-22 18:00:00 TS 25.1667 -70.5667 70 hurdat_atl main 509 509 O____________O hurdat_atl AL061858 25.2000 -70.6000 HU 70 1 25.1000 -70.5000 TS 60 10 30
1858291N21287 1858 17 NA NA NOT_NAMED 1858-10-22 21:00:00 TS 25.5615 -70.2719 main 563 563 P____________P AL061858 25.6574 -70.3147 HU 70 1 25.3696 -70.1861 TS 65 10 36
1858291N21287 1858 17 NA NA NOT_NAMED 1858-10-23 00:00:00 TS 25.9667 -69.9333 70 hurdat_atl main 622 622 O____________O hurdat_atl AL061858 26.1000 -70.0000 HU 70 1 25.7000 -69.8000 HU 70 11 37
1858291N21287 1858 17 NA NA NOT_NAMED 1858-10-23 03:00:00 TS 26.4508 -69.5223 main 690 690 P____________P AL061858 26.5274 -69.6645 HU 70 1 26.2977 -69.2380 HU 75 13 37
1858291N21287 1858 17 NA NA NOT_NAMED 1858-10-23 06:00:00 TS 27.0000 -69.0667 70 hurdat_atl main 759 759 O____________O hurdat_atl AL061858 27.0000 -69.3000 HU 70 1 27.0000 -68.6000 HU 80 14 35
1858291N21287 1858 17 NA NA NOT_NAMED 1858-10-23 09:00:00 TS 27.5965 -68.6145 main 842 842 P____________P AL061858 27.5697 -68.9294 HU 75 1 27.6499 -67.9846 HU 82 15 34
1858291N21287 1858 17 NA NA NOT_NAMED 1858-10-23 12:00:00 TS 28.2333 -68.1333 80 hurdat_atl main 925 925 O____________O hurdat_atl AL061858 28.2000 -68.5000 HU 80 1 28.3000 -67.4000 HU 85 16 35
1858291N21287 1858 17 NA NA NOT_NAMED 1858-10-23 15:00:00 TS 28.8658 -67.6069 main 1017 1017 P____________P AL061858 28.8275 -67.9720 HU 80 1 28.9422 -66.8767 HU 87 16 36
1858291N21287 1858 17 NA NA NOT_NAMED 1858-10-23 18:00:00 TS 29.5333 -67.0667 80 hurdat_atl main 1052 1036 O____________O hurdat_atl AL061858 29.5000 -67.4000 HU 80 1 29.6000 -66.4000 HU 90 17 34
1858291N21287 1858 17 NA NA NOT_NAMED 1858-10-23 21:00:00 TS 30.2539 -66.5469 main 1037 1021 P____________P AL061858 30.2346 -66.8640 HU 85 2 30.2925 -65.9125 HU 92 17 31
1858291N21287 1858 17 NA NA NOT_NAMED 1858-10-24 00:00:00 TS 31.0000 -66.0333 90 hurdat_atl main 1029 1021 O____________O hurdat_atl AL061858 31.0000 -66.3000 HU 90 2 31.0000 -65.5000 HU 95 17 31
1858291N21287 1858 17 NA NA NOT_NAMED 1858-10-24 03:00:00 TS 31.7182 -65.5036 main 1028 1023 P____________P AL061858 31.7499 -65.6643 HU 90 2 31.6549 -65.1823 HU 97 17 31
1858291N21287 1858 17 NA NA NOT_NAMED 1858-10-24 06:00:00 TS 32.4667 -65.0000 90 hurdat_atl main 1031 1031 O____________O hurdat_atl AL061858 32.5000 -65.0000 HU 90 2 32.4000 -65.0000 MH 100 955 18 27
1858291N21287 1858 17 NA NA NOT_NAMED 1858-10-24 09:00:00 TS 33.2850 -64.5409 main 1042 986 P____________P AL061858 33.2500 -64.3270 HU 90 2 33.3550 -64.9688 MH 100 957 18 24
1858291N21287 1858 17 NA NA NOT_NAMED 1858-10-24 12:00:00 TS 34.1333 -64.1333 90 hurdat_atl main 990 919 O____________I hurdat_atl AL061858 34.0000 -63.7000 HU 90 2 34.4000 -65.0000 MH 100 960 18 20
1858291N21287 1858 17 NA NA NOT_NAMED 1858-10-24 15:00:00 TS 35.0063 -63.7724 main 919 863 P____________P AL061858 34.7495 -63.1760 HU 90 2 35.5199 -64.9653 MH 92 963 18 19
1858291N21287 1858 17 NA NA NOT_NAMED 1858-10-24 18:00:00 TS 35.8000 -63.4333 90 hurdat_atl main 869 824 O____________O hurdat_atl AL061858 35.5000 -62.7000 HU 90 2 36.4000 -64.9000 HU 85 966 15 27
1858291N21287 1858 17 NA NA NOT_NAMED 1858-10-24 21:00:00 TS 36.3800 -62.9144 main 815 774 P____________P AL061858 36.2498 -62.1990 HU 85 2 36.7600 -64.8072 HU 82 15 38
1858291N21287 1858 17 NA NA NOT_NAMED 1858-10-25 00:00:00 MX 36.9600 -62.3000 80 hurdat_atl main 766 722 O____________O hurdat_atl AL061858 37.0000 -61.7000 HU 80 1 36.8000 -64.7000 EX 80 17 40
1858291N21287 1858 17 NA NA NOT_NAMED 1858-10-25 03:00:00 MX 37.6618 -61.5666 main 716 676 P_____________ AL061858 37.7498 -61.1990 HU 80 1 EX 20 39
1858291N21287 1858 17 NA NA NOT_NAMED 1858-10-25 06:00:00 TS 38.5000 -60.7000 80 hurdat_atl main 676 633 O_____________ hurdat_atl AL061858 38.5000 -60.7000 HU 80 1 19 33
1858291N21287 1858 17 NA NA NOT_NAMED 1858-10-25 09:00:00 TS 39.2721 -60.2140 main 629 580 P_____________ AL061858 39.2721 -60.2140 HU 75 1 17 27
1858291N21287 1858 17 NA NA NOT_NAMED 1858-10-25 12:00:00 TS 40.0000 -59.7000 70 hurdat_atl main 580 534 O_____________ hurdat_atl AL061858 40.0000 -59.7000 HU 70 1 16 32
1858291N21287 1858 17 NA NA NOT_NAMED 1858-10-25 15:00:00 TS 40.6374 -59.1142 main 536 491 P_____________ AL061858 40.6374 -59.1142 HU 70 1 15 37
1858291N21287 1858 17 NA NA NOT_NAMED 1858-10-25 18:00:00 TS 41.2000 -58.5000 70 hurdat_atl main 491 462 O_____________ hurdat_atl AL061858 41.2000 -58.5000 HU 70 1 14 40
1858291N21287 1858 17 NA NA NOT_NAMED 1858-10-25 21:00:00 TS 41.7146 -57.9060 main 466 449 P_____________ AL061858 41.7146 -57.9060 HU 65 1 13 42
1858291N21287 1858 17 NA NA NOT_NAMED 1858-10-26 00:00:00 TS 42.2000 -57.3000 60 hurdat_atl main 451 436 O_____________ hurdat_atl AL061858 42.2000 -57.3000 TS 60 0 13 43
1858291N21287 1858 17 NA NA NOT_NAMED 1858-10-26 03:00:00 TS 42.6959 -56.6625 main 436 400 P_____________ AL061858 42.6959 -56.6625 TS 60 0 14 44
1858291N21287 1858 17 NA NA NOT_NAMED 1858-10-26 06:00:00 TS 43.2000 -56.0000 60 hurdat_atl main 400 O_____________ hurdat_atl AL061858 43.2000 -56.0000 TS 60 0 14 44

About IBTrACS Database

This database is a web-friendly format of International Best Track Archive for Climate Stewardship (IBTrACS), a global best track data archive curated by NOAA dating back to 1842.

Updated: 2021-10-08